sensor_id;sensor_type;location;lat;lon;timestamp;P1;durP1;ratioP1;P2;durP2;ratioP2
7493;SDS011;3788;49.902;8.590;2022-12-18T00:01:57;28.20;;;14.43;;
7493;SDS011;3788;49.902;8.590;2022-12-18T00:04:25;25.97;;;13.77;;
7493;SDS011;3788;49.902;8.590;2022-12-18T00:06:52;30.10;;;15.70;;
7493;SDS011;3788;49.902;8.590;2022-12-18T00:09:20;30.50;;;16.00;;
7493;SDS011;3788;49.902;8.590;2022-12-18T00:11:48;29.73;;;16.90;;
7493;SDS011;3788;49.902;8.590;2022-12-18T00:14:15;31.93;;;16.63;;
7493;SDS011;3788;49.902;8.590;2022-12-18T00:16:43;29.23;;;15.07;;
7493;SDS011;3788;49.902;8.590;2022-12-18T00:19:11;29.87;;;15.10;;
7493;SDS011;3788;49.902;8.590;2022-12-18T00:21:38;35.13;;;16.37;;
7493;SDS011;3788;49.902;8.590;2022-12-18T00:24:06;37.13;;;16.83;;
7493;SDS011;3788;49.902;8.590;2022-12-18T00:26:34;34.47;;;17.03;;
7493;SDS011;3788;49.902;8.590;2022-12-18T00:29:03;32.37;;;16.37;;
7493;SDS011;3788;49.902;8.590;2022-12-18T00:31:32;28.67;;;16.20;;
7493;SDS011;3788;49.902;8.590;2022-12-18T00:33:59;27.17;;;15.03;;
7493;SDS011;3788;49.902;8.590;2022-12-18T00:36:26;30.63;;;14.37;;
7493;SDS011;3788;49.902;8.590;2022-12-18T00:38:54;25.87;;;14.33;;
7493;SDS011;3788;49.902;8.590;2022-12-18T00:41:22;29.33;;;14.93;;
7493;SDS011;3788;49.902;8.590;2022-12-18T00:44:09;28.23;;;14.13;;
7493;SDS011;3788;49.902;8.590;2022-12-18T00:46:37;31.00;;;15.20;;
7493;SDS011;3788;49.902;8.590;2022-12-18T00:49:04;25.03;;;13.53;;
7493;SDS011;3788;49.902;8.590;2022-12-18T00:51:31;26.20;;;14.27;;
7493;SDS011;3788;49.902;8.590;2022-12-18T00:53:58;27.60;;;13.70;;
7493;SDS011;3788;49.902;8.590;2022-12-18T00:56:24;26.53;;;13.53;;
7493;SDS011;3788;49.902;8.590;2022-12-18T00:58:51;25.70;;;13.60;;
7493;SDS011;3788;49.902;8.590;2022-12-18T01:01:19;30.50;;;13.43;;
7493;SDS011;3788;49.902;8.590;2022-12-18T01:03:46;29.27;;;14.40;;
7493;SDS011;3788;49.902;8.590;2022-12-18T01:06:13;29.03;;;13.50;;
7493;SDS011;3788;49.902;8.590;2022-12-18T01:08:42;33.37;;;15.37;;
7493;SDS011;3788;49.902;8.590;2022-12-18T01:11:09;29.57;;;15.20;;
7493;SDS011;3788;49.902;8.590;2022-12-18T01:13:37;24.83;;;13.10;;
7493;SDS011;3788;49.902;8.590;2022-12-18T01:16:04;27.57;;;13.97;;
7493;SDS011;3788;49.902;8.590;2022-12-18T01:18:33;27.73;;;14.57;;
7493;SDS011;3788;49.902;8.590;2022-12-18T01:20:59;25.73;;;14.40;;
7493;SDS011;3788;49.902;8.590;2022-12-18T01:23:26;29.17;;;14.77;;
7493;SDS011;3788;49.902;8.590;2022-12-18T01:25:53;31.97;;;15.23;;
7493;SDS011;3788;49.902;8.590;2022-12-18T01:28:19;29.23;;;14.27;;
7493;SDS011;3788;49.902;8.590;2022-12-18T01:30:46;29.47;;;15.07;;
7493;SDS011;3788;49.902;8.590;2022-12-18T01:33:13;31.17;;;16.03;;
7493;SDS011;3788;49.902;8.590;2022-12-18T01:35:41;30.80;;;15.13;;
7493;SDS011;3788;49.902;8.590;2022-12-18T01:38:08;29.30;;;14.03;;
7493;SDS011;3788;49.902;8.590;2022-12-18T01:40:35;24.17;;;13.33;;
7493;SDS011;3788;49.902;8.590;2022-12-18T01:43:02;27.67;;;14.40;;
7493;SDS011;3788;49.902;8.590;2022-12-18T01:45:29;29.33;;;14.47;;
7493;SDS011;3788;49.902;8.590;2022-12-18T01:47:57;25.93;;;13.50;;
7493;SDS011;3788;49.902;8.590;2022-12-18T01:50:27;35.03;;;15.27;;
7493;SDS011;3788;49.902;8.590;2022-12-18T01:52:59;23.57;;;13.80;;
7493;SDS011;3788;49.902;8.590;2022-12-18T01:55:31;27.30;;;14.83;;
7493;SDS011;3788;49.902;8.590;2022-12-18T01:58:02;26.33;;;14.23;;
7493;SDS011;3788;49.902;8.590;2022-12-18T02:00:30;28.47;;;14.57;;
7493;SDS011;3788;49.902;8.590;2022-12-18T02:02:57;28.27;;;15.13;;
7493;SDS011;3788;49.902;8.590;2022-12-18T02:05:27;24.63;;;12.77;;
7493;SDS011;3788;49.902;8.590;2022-12-18T02:08:03;29.00;;;15.67;;
7493;SDS011;3788;49.902;8.590;2022-12-18T02:10:37;25.83;;;14.50;;
7493;SDS011;3788;49.902;8.590;2022-12-18T02:13:12;26.43;;;14.00;;
7493;SDS011;3788;49.902;8.590;2022-12-18T02:15:47;26.40;;;14.67;;
7493;SDS011;3788;49.902;8.590;2022-12-18T02:18:20;25.37;;;13.97;;
7493;SDS011;3788;49.902;8.590;2022-12-18T02:20:52;30.33;;;14.93;;
7493;SDS011;3788;49.902;8.590;2022-12-18T02:23:32;26.73;;;14.67;;
7493;SDS011;3788;49.902;8.590;2022-12-18T02:26:15;29.70;;;14.93;;
7493;SDS011;3788;49.902;8.590;2022-12-18T02:28:46;27.90;;;15.33;;
7493;SDS011;3788;49.902;8.590;2022-12-18T02:31:19;24.40;;;13.50;;
7493;SDS011;3788;49.902;8.590;2022-12-18T02:33:50;24.97;;;14.13;;
7493;SDS011;3788;49.902;8.590;2022-12-18T02:36:20;25.73;;;13.83;;
7493;SDS011;3788;49.902;8.590;2022-12-18T02:38:48;26.57;;;14.03;;
7493;SDS011;3788;49.902;8.590;2022-12-18T02:41:19;23.07;;;13.73;;
7493;SDS011;3788;49.902;8.590;2022-12-18T02:43:48;25.70;;;13.77;;
7493;SDS011;3788;49.902;8.590;2022-12-18T02:46:31;27.90;;;13.37;;
7493;SDS011;3788;49.902;8.590;2022-12-18T02:49:03;24.50;;;13.70;;
7493;SDS011;3788;49.902;8.590;2022-12-18T02:51:39;24.87;;;13.77;;
7493;SDS011;3788;49.902;8.590;2022-12-18T02:54:16;31.70;;;14.37;;
7493;SDS011;3788;49.902;8.590;2022-12-18T02:56:51;27.73;;;13.70;;
7493;SDS011;3788;49.902;8.590;2022-12-18T02:59:22;26.77;;;15.10;;
7493;SDS011;3788;49.902;8.590;2022-12-18T03:01:54;26.53;;;14.90;;
7493;SDS011;3788;49.902;8.590;2022-12-18T03:04:25;22.57;;;13.40;;
7493;SDS011;3788;49.902;8.590;2022-12-18T03:06:55;23.10;;;13.67;;
7493;SDS011;3788;49.902;8.590;2022-12-18T03:09:29;25.97;;;13.77;;
7493;SDS011;3788;49.902;8.590;2022-12-18T03:12:02;23.63;;;13.07;;
7493;SDS011;3788;49.902;8.590;2022-12-18T03:14:51;23.60;;;13.10;;
7493;SDS011;3788;49.902;8.590;2022-12-18T03:17:23;22.47;;;12.53;;
7493;SDS011;3788;49.902;8.590;2022-12-18T03:19:54;24.80;;;14.00;;
7493;SDS011;3788;49.902;8.590;2022-12-18T03:22:26;27.03;;;13.63;;
7493;SDS011;3788;49.902;8.590;2022-12-18T03:24:55;23.37;;;14.77;;
7493;SDS011;3788;49.902;8.590;2022-12-18T03:27:24;23.17;;;13.60;;
7493;SDS011;3788;49.902;8.590;2022-12-18T03:29:52;25.73;;;14.30;;
7493;SDS011;3788;49.902;8.590;2022-12-18T03:32:24;27.93;;;15.23;;
7493;SDS011;3788;49.902;8.590;2022-12-18T03:34:56;23.57;;;14.97;;
7493;SDS011;3788;49.902;8.590;2022-12-18T03:37:28;25.17;;;14.13;;
7493;SDS011;3788;49.902;8.590;2022-12-18T03:39:54;28.40;;;14.10;;
7493;SDS011;3788;49.902;8.590;2022-12-18T03:42:23;26.73;;;14.60;;
7493;SDS011;3788;49.902;8.590;2022-12-18T03:44:56;28.27;;;14.10;;
7493;SDS011;3788;49.902;8.590;2022-12-18T03:47:28;25.57;;;14.23;;
7493;SDS011;3788;49.902;8.590;2022-12-18T03:50:02;23.77;;;14.17;;
7493;SDS011;3788;49.902;8.590;2022-12-18T03:52:38;27.93;;;14.80;;
7493;SDS011;3788;49.902;8.590;2022-12-18T03:55:08;22.40;;;13.40;;
7493;SDS011;3788;49.902;8.590;2022-12-18T03:57:38;25.33;;;14.03;;
7493;SDS011;3788;49.902;8.590;2022-12-18T04:00:08;28.90;;;15.67;;
7493;SDS011;3788;49.902;8.590;2022-12-18T04:02:37;26.83;;;14.37;;
7493;SDS011;3788;49.902;8.590;2022-12-18T04:05:08;28.40;;;15.30;;
7493;SDS011;3788;49.902;8.590;2022-12-18T04:07:36;26.40;;;14.47;;
7493;SDS011;3788;49.902;8.590;2022-12-18T04:10:05;25.87;;;15.00;;
7493;SDS011;3788;49.902;8.590;2022-12-18T04:12:34;24.30;;;14.97;;
7493;SDS011;3788;49.902;8.590;2022-12-18T04:15:05;25.57;;;13.10;;
7493;SDS011;3788;49.902;8.590;2022-12-18T04:17:33;25.50;;;13.40;;
7493;SDS011;3788;49.902;8.590;2022-12-18T04:19:59;25.17;;;13.67;;
7493;SDS011;3788;49.902;8.590;2022-12-18T04:22:26;23.30;;;12.90;;
7493;SDS011;3788;49.902;8.590;2022-12-18T04:24:53;24.43;;;14.33;;
7493;SDS011;3788;49.902;8.590;2022-12-18T04:27:20;27.63;;;14.60;;
7493;SDS011;3788;49.902;8.590;2022-12-18T04:29:48;25.67;;;14.60;;
7493;SDS011;3788;49.902;8.590;2022-12-18T04:32:15;25.70;;;14.23;;
7493;SDS011;3788;49.902;8.590;2022-12-18T04:34:42;26.50;;;14.47;;
7493;SDS011;3788;49.902;8.590;2022-12-18T04:37:08;22.33;;;13.43;;
7493;SDS011;3788;49.902;8.590;2022-12-18T04:39:35;28.33;;;14.03;;
7493;SDS011;3788;49.902;8.590;2022-12-18T04:42:02;24.70;;;13.90;;
7493;SDS011;3788;49.902;8.590;2022-12-18T04:44:29;22.03;;;12.70;;
7493;SDS011;3788;49.902;8.590;2022-12-18T04:46:57;26.60;;;14.00;;
7493;SDS011;3788;49.902;8.590;2022-12-18T04:49:23;22.90;;;13.57;;
7493;SDS011;3788;49.902;8.590;2022-12-18T04:51:50;20.47;;;12.60;;
7493;SDS011;3788;49.902;8.590;2022-12-18T04:54:18;26.30;;;15.13;;
7493;SDS011;3788;49.902;8.590;2022-12-18T04:56:44;18.37;;;12.33;;
7493;SDS011;3788;49.902;8.590;2022-12-18T04:59:12;23.43;;;13.23;;
7493;SDS011;3788;49.902;8.590;2022-12-18T05:01:39;22.37;;;14.90;;
7493;SDS011;3788;49.902;8.590;2022-12-18T05:04:07;24.27;;;13.63;;
7493;SDS011;3788;49.902;8.590;2022-12-18T05:06:33;25.20;;;13.93;;
7493;SDS011;3788;49.902;8.590;2022-12-18T05:09:00;23.90;;;13.77;;
7493;SDS011;3788;49.902;8.590;2022-12-18T05:11:27;27.23;;;14.37;;
7493;SDS011;3788;49.902;8.590;2022-12-18T05:13:53;21.60;;;12.23;;
7493;SDS011;3788;49.902;8.590;2022-12-18T05:16:20;23.23;;;14.10;;
7493;SDS011;3788;49.902;8.590;2022-12-18T05:18:47;23.03;;;13.77;;
7493;SDS011;3788;49.902;8.590;2022-12-18T05:21:15;23.73;;;13.13;;
7493;SDS011;3788;49.902;8.590;2022-12-18T05:23:42;25.77;;;14.63;;
7493;SDS011;3788;49.902;8.590;2022-12-18T05:26:09;23.03;;;13.27;;
7493;SDS011;3788;49.902;8.590;2022-12-18T05:28:41;23.27;;;13.07;;
7493;SDS011;3788;49.902;8.590;2022-12-18T05:31:07;21.63;;;12.47;;
7493;SDS011;3788;49.902;8.590;2022-12-18T05:33:35;23.30;;;13.30;;
7493;SDS011;3788;49.902;8.590;2022-12-18T05:36:03;23.60;;;12.20;;
7493;SDS011;3788;49.902;8.590;2022-12-18T05:38:33;25.57;;;12.83;;
7493;SDS011;3788;49.902;8.590;2022-12-18T05:41:01;20.83;;;12.37;;
7493;SDS011;3788;49.902;8.590;2022-12-18T05:43:28;22.27;;;13.43;;
7493;SDS011;3788;49.902;8.590;2022-12-18T05:45:55;21.63;;;12.60;;
7493;SDS011;3788;49.902;8.590;2022-12-18T05:48:22;27.20;;;14.27;;
7493;SDS011;3788;49.902;8.590;2022-12-18T05:50:51;21.07;;;13.40;;
7493;SDS011;3788;49.902;8.590;2022-12-18T05:53:19;24.97;;;14.03;;
7493;SDS011;3788;49.902;8.590;2022-12-18T05:55:47;22.73;;;13.20;;
7493;SDS011;3788;49.902;8.590;2022-12-18T05:58:14;23.10;;;12.27;;
7493;SDS011;3788;49.902;8.590;2022-12-18T06:00:42;23.87;;;13.30;;
7493;SDS011;3788;49.902;8.590;2022-12-18T06:03:11;18.60;;;12.27;;
7493;SDS011;3788;49.902;8.590;2022-12-18T06:05:39;24.27;;;12.87;;
7493;SDS011;3788;49.902;8.590;2022-12-18T06:08:07;23.40;;;13.57;;
7493;SDS011;3788;49.902;8.590;2022-12-18T06:10:34;22.90;;;12.97;;
7493;SDS011;3788;49.902;8.590;2022-12-18T06:13:02;21.83;;;12.60;;
7493;SDS011;3788;49.902;8.590;2022-12-18T06:15:29;21.57;;;13.03;;
7493;SDS011;3788;49.902;8.590;2022-12-18T06:17:56;20.90;;;12.97;;
7493;SDS011;3788;49.902;8.590;2022-12-18T06:20:23;21.17;;;12.40;;
7493;SDS011;3788;49.902;8.590;2022-12-18T06:22:50;23.70;;;13.83;;
7493;SDS011;3788;49.902;8.590;2022-12-18T06:25:17;22.10;;;12.27;;
7493;SDS011;3788;49.902;8.590;2022-12-18T06:27:44;20.40;;;12.70;;
7493;SDS011;3788;49.902;8.590;2022-12-18T06:30:14;20.07;;;12.03;;
7493;SDS011;3788;49.902;8.590;2022-12-18T06:32:41;21.93;;;12.83;;
7493;SDS011;3788;49.902;8.590;2022-12-18T06:35:08;23.93;;;12.63;;
7493;SDS011;3788;49.902;8.590;2022-12-18T06:37:35;22.40;;;12.57;;
7493;SDS011;3788;49.902;8.590;2022-12-18T06:40:02;22.70;;;13.10;;
7493;SDS011;3788;49.902;8.590;2022-12-18T06:42:30;21.90;;;12.93;;
7493;SDS011;3788;49.902;8.590;2022-12-18T06:44:56;23.23;;;13.30;;
7493;SDS011;3788;49.902;8.590;2022-12-18T06:47:25;25.83;;;14.17;;
7493;SDS011;3788;49.902;8.590;2022-12-18T06:49:52;24.87;;;12.77;;
7493;SDS011;3788;49.902;8.590;2022-12-18T06:52:18;22.33;;;13.70;;
7493;SDS011;3788;49.902;8.590;2022-12-18T06:54:45;24.63;;;12.80;;
7493;SDS011;3788;49.902;8.590;2022-12-18T06:57:12;23.17;;;12.80;;
7493;SDS011;3788;49.902;8.590;2022-12-18T06:59:38;23.00;;;13.33;;
7493;SDS011;3788;49.902;8.590;2022-12-18T07:02:05;25.17;;;13.20;;
7493;SDS011;3788;49.902;8.590;2022-12-18T07:04:33;22.20;;;12.43;;
7493;SDS011;3788;49.902;8.590;2022-12-18T07:07:00;23.33;;;11.70;;
7493;SDS011;3788;49.902;8.590;2022-12-18T07:09:27;21.30;;;12.47;;
7493;SDS011;3788;49.902;8.590;2022-12-18T07:11:53;23.63;;;14.07;;
7493;SDS011;3788;49.902;8.590;2022-12-18T07:14:20;27.50;;;14.33;;
7493;SDS011;3788;49.902;8.590;2022-12-18T07:16:47;31.23;;;14.53;;
7493;SDS011;3788;49.902;8.590;2022-12-18T07:19:14;28.17;;;14.30;;
7493;SDS011;3788;49.902;8.590;2022-12-18T07:21:42;26.37;;;14.17;;
7493;SDS011;3788;49.902;8.590;2022-12-18T07:24:09;27.93;;;14.90;;
7493;SDS011;3788;49.902;8.590;2022-12-18T07:26:35;29.33;;;13.23;;
7493;SDS011;3788;49.902;8.590;2022-12-18T07:29:02;27.80;;;14.87;;
7493;SDS011;3788;49.902;8.590;2022-12-18T07:31:29;29.57;;;13.90;;
7493;SDS011;3788;49.902;8.590;2022-12-18T07:33:56;25.90;;;14.50;;
7493;SDS011;3788;49.902;8.590;2022-12-18T07:36:22;22.23;;;13.43;;
7493;SDS011;3788;49.902;8.590;2022-12-18T07:38:51;25.03;;;13.93;;
7493;SDS011;3788;49.902;8.590;2022-12-18T07:41:18;27.13;;;13.70;;
7493;SDS011;3788;49.902;8.590;2022-12-18T07:43:45;23.63;;;13.47;;
7493;SDS011;3788;49.902;8.590;2022-12-18T07:46:12;33.07;;;14.73;;
7493;SDS011;3788;49.902;8.590;2022-12-18T07:48:40;28.70;;;14.73;;
7493;SDS011;3788;49.902;8.590;2022-12-18T07:51:07;30.27;;;14.53;;
7493;SDS011;3788;49.902;8.590;2022-12-18T07:53:35;25.80;;;13.43;;
7493;SDS011;3788;49.902;8.590;2022-12-18T07:56:05;26.77;;;14.93;;
7493;SDS011;3788;49.902;8.590;2022-12-18T07:58:33;27.13;;;15.27;;
7493;SDS011;3788;49.902;8.590;2022-12-18T08:01:04;26.23;;;13.87;;
7493;SDS011;3788;49.902;8.590;2022-12-18T08:03:31;29.50;;;14.97;;
7493;SDS011;3788;49.902;8.590;2022-12-18T08:05:59;30.30;;;14.53;;
7493;SDS011;3788;49.902;8.590;2022-12-18T08:08:26;35.03;;;15.97;;
7493;SDS011;3788;49.902;8.590;2022-12-18T08:10:54;31.53;;;16.03;;
7493;SDS011;3788;49.902;8.590;2022-12-18T08:13:24;31.57;;;15.03;;
7493;SDS011;3788;49.902;8.590;2022-12-18T08:15:57;29.77;;;13.77;;
7493;SDS011;3788;49.902;8.590;2022-12-18T08:18:26;30.67;;;13.63;;
7493;SDS011;3788;49.902;8.590;2022-12-18T08:20:55;24.23;;;14.37;;
7493;SDS011;3788;49.902;8.590;2022-12-18T08:23:24;27.57;;;13.47;;
7493;SDS011;3788;49.902;8.590;2022-12-18T08:25:50;24.90;;;13.43;;
7493;SDS011;3788;49.902;8.590;2022-12-18T08:28:17;25.70;;;13.60;;
7493;SDS011;3788;49.902;8.590;2022-12-18T08:30:45;25.73;;;13.83;;
7493;SDS011;3788;49.902;8.590;2022-12-18T08:33:12;24.57;;;13.17;;
7493;SDS011;3788;49.902;8.590;2022-12-18T08:35:39;26.03;;;13.37;;
7493;SDS011;3788;49.902;8.590;2022-12-18T08:38:05;22.73;;;12.80;;
7493;SDS011;3788;49.902;8.590;2022-12-18T08:40:32;26.33;;;13.73;;
7493;SDS011;3788;49.902;8.590;2022-12-18T08:42:59;25.90;;;12.93;;
7493;SDS011;3788;49.902;8.590;2022-12-18T08:45:43;30.03;;;14.20;;
7493;SDS011;3788;49.902;8.590;2022-12-18T08:48:11;30.20;;;16.10;;
7493;SDS011;3788;49.902;8.590;2022-12-18T08:50:38;28.60;;;15.53;;
7493;SDS011;3788;49.902;8.590;2022-12-18T08:53:05;28.87;;;14.80;;
7493;SDS011;3788;49.902;8.590;2022-12-18T08:55:32;26.27;;;13.23;;
7493;SDS011;3788;49.902;8.590;2022-12-18T08:57:58;28.97;;;13.67;;
7493;SDS011;3788;49.902;8.590;2022-12-18T09:00:25;28.73;;;14.37;;
7493;SDS011;3788;49.902;8.590;2022-12-18T09:02:52;27.93;;;13.87;;
7493;SDS011;3788;49.902;8.590;2022-12-18T09:05:20;27.40;;;14.37;;
7493;SDS011;3788;49.902;8.590;2022-12-18T09:07:47;29.07;;;14.93;;
7493;SDS011;3788;49.902;8.590;2022-12-18T09:10:14;26.10;;;14.50;;
7493;SDS011;3788;49.902;8.590;2022-12-18T09:12:40;26.07;;;13.37;;
7493;SDS011;3788;49.902;8.590;2022-12-18T09:15:07;23.73;;;13.33;;
7493;SDS011;3788;49.902;8.590;2022-12-18T09:17:34;28.67;;;13.77;;
7493;SDS011;3788;49.902;8.590;2022-12-18T09:20:02;22.73;;;11.37;;
7493;SDS011;3788;49.902;8.590;2022-12-18T09:22:30;23.37;;;12.50;;
7493;SDS011;3788;49.902;8.590;2022-12-18T09:24:57;24.57;;;13.20;;
7493;SDS011;3788;49.902;8.590;2022-12-18T09:27:24;26.20;;;12.27;;
7493;SDS011;3788;49.902;8.590;2022-12-18T09:29:51;24.00;;;12.57;;
7493;SDS011;3788;49.902;8.590;2022-12-18T09:32:17;29.53;;;15.90;;
7493;SDS011;3788;49.902;8.590;2022-12-18T09:34:45;25.80;;;13.73;;
7493;SDS011;3788;49.902;8.590;2022-12-18T09:37:11;28.33;;;14.77;;
7493;SDS011;3788;49.902;8.590;2022-12-18T09:39:39;26.23;;;15.50;;
7493;SDS011;3788;49.902;8.590;2022-12-18T09:42:08;27.23;;;15.27;;
7493;SDS011;3788;49.902;8.590;2022-12-18T09:44:44;27.33;;;14.87;;
7493;SDS011;3788;49.902;8.590;2022-12-18T09:47:16;27.97;;;16.17;;
7493;SDS011;3788;49.902;8.590;2022-12-18T09:49:45;31.20;;;16.27;;
7493;SDS011;3788;49.902;8.590;2022-12-18T09:52:15;31.90;;;17.07;;
7493;SDS011;3788;49.902;8.590;2022-12-18T09:54:49;28.90;;;16.20;;
7493;SDS011;3788;49.902;8.590;2022-12-18T09:57:20;34.27;;;17.17;;
7493;SDS011;3788;49.902;8.590;2022-12-18T09:59:49;30.53;;;17.73;;
7493;SDS011;3788;49.902;8.590;2022-12-18T10:02:20;29.47;;;15.90;;
7493;SDS011;3788;49.902;8.590;2022-12-18T10:04:53;27.97;;;14.20;;
7493;SDS011;3788;49.902;8.590;2022-12-18T10:07:29;25.10;;;14.70;;
7493;SDS011;3788;49.902;8.590;2022-12-18T10:10:06;27.00;;;15.87;;
7493;SDS011;3788;49.902;8.590;2022-12-18T10:12:41;25.47;;;15.10;;
7493;SDS011;3788;49.902;8.590;2022-12-18T10:15:13;29.93;;;16.67;;
7493;SDS011;3788;49.902;8.590;2022-12-18T10:17:46;32.67;;;16.97;;
7493;SDS011;3788;49.902;8.590;2022-12-18T10:20:19;35.27;;;18.63;;
7493;SDS011;3788;49.902;8.590;2022-12-18T10:22:53;30.17;;;17.40;;
7493;SDS011;3788;49.902;8.590;2022-12-18T10:25:28;29.63;;;16.83;;
7493;SDS011;3788;49.902;8.590;2022-12-18T10:28:00;29.63;;;16.10;;
7493;SDS011;3788;49.902;8.590;2022-12-18T10:30:34;31.27;;;17.30;;
7493;SDS011;3788;49.902;8.590;2022-12-18T10:33:01;31.47;;;17.83;;
7493;SDS011;3788;49.902;8.590;2022-12-18T10:35:29;34.67;;;19.00;;
7493;SDS011;3788;49.902;8.590;2022-12-18T10:37:59;37.53;;;20.00;;
7493;SDS011;3788;49.902;8.590;2022-12-18T10:40:28;35.17;;;19.23;;
7493;SDS011;3788;49.902;8.590;2022-12-18T10:43:03;34.77;;;19.50;;
7493;SDS011;3788;49.902;8.590;2022-12-18T10:45:32;32.43;;;18.47;;
7493;SDS011;3788;49.902;8.590;2022-12-18T10:48:00;34.33;;;18.63;;
7493;SDS011;3788;49.902;8.590;2022-12-18T10:50:28;35.37;;;20.00;;
7493;SDS011;3788;49.902;8.590;2022-12-18T10:52:58;37.47;;;19.53;;
7493;SDS011;3788;49.902;8.590;2022-12-18T10:55:27;32.93;;;18.77;;
7493;SDS011;3788;49.902;8.590;2022-12-18T10:58:12;35.70;;;19.07;;
7493;SDS011;3788;49.902;8.590;2022-12-18T11:00:43;34.27;;;19.17;;
7493;SDS011;3788;49.902;8.590;2022-12-18T11:06:00;32.13;;;18.33;;
7493;SDS011;3788;49.902;8.590;2022-12-18T11:08:28;34.77;;;19.30;;
7493;SDS011;3788;49.902;8.590;2022-12-18T11:10:56;38.27;;;20.03;;
7493;SDS011;3788;49.902;8.590;2022-12-18T11:13:24;32.37;;;18.50;;
7493;SDS011;3788;49.902;8.590;2022-12-18T11:15:52;35.43;;;19.93;;
7493;SDS011;3788;49.902;8.590;2022-12-18T11:18:20;34.13;;;18.27;;
7493;SDS011;3788;49.902;8.590;2022-12-18T11:20:51;32.53;;;18.73;;
7493;SDS011;3788;49.902;8.590;2022-12-18T11:23:20;29.93;;;18.67;;
7493;SDS011;3788;49.902;8.590;2022-12-18T11:25:53;35.20;;;19.10;;
7493;SDS011;3788;49.902;8.590;2022-12-18T11:31:17;31.53;;;17.93;;
7493;SDS011;3788;49.902;8.590;2022-12-18T11:33:47;30.10;;;17.10;;
7493;SDS011;3788;49.902;8.590;2022-12-18T11:36:18;30.87;;;16.83;;
7493;SDS011;3788;49.902;8.590;2022-12-18T11:38:47;32.03;;;16.50;;
7493;SDS011;3788;49.902;8.590;2022-12-18T11:41:19;28.60;;;16.13;;
7493;SDS011;3788;49.902;8.590;2022-12-18T11:44:13;31.23;;;18.10;;
7493;SDS011;3788;49.902;8.590;2022-12-18T11:46:45;32.13;;;16.77;;
7493;SDS011;3788;49.902;8.590;2022-12-18T11:49:17;36.20;;;18.27;;
7493;SDS011;3788;49.902;8.590;2022-12-18T11:51:48;38.47;;;18.07;;
7493;SDS011;3788;49.902;8.590;2022-12-18T11:54:19;31.90;;;16.30;;
7493;SDS011;3788;49.902;8.590;2022-12-18T11:56:46;29.37;;;16.90;;
7493;SDS011;3788;49.902;8.590;2022-12-18T11:59:19;36.70;;;18.63;;
7493;SDS011;3788;49.902;8.590;2022-12-18T12:01:56;33.80;;;17.60;;
7493;SDS011;3788;49.902;8.590;2022-12-18T12:07:29;38.47;;;17.67;;
7493;SDS011;3788;49.902;8.590;2022-12-18T12:10:08;32.20;;;17.33;;
7493;SDS011;3788;49.902;8.590;2022-12-18T12:12:49;32.10;;;17.43;;
7493;SDS011;3788;49.902;8.590;2022-12-18T12:15:28;34.23;;;17.30;;
7493;SDS011;3788;49.902;8.590;2022-12-18T12:18:07;35.97;;;16.33;;
7493;SDS011;3788;49.902;8.590;2022-12-18T12:20:46;33.70;;;18.23;;
7493;SDS011;3788;49.902;8.590;2022-12-18T12:23:20;33.87;;;16.50;;
7493;SDS011;3788;49.902;8.590;2022-12-18T12:25:53;32.23;;;16.77;;
7493;SDS011;3788;49.902;8.590;2022-12-18T12:28:30;33.90;;;18.13;;
7493;SDS011;3788;49.902;8.590;2022-12-18T12:31:22;35.93;;;18.17;;
7493;SDS011;3788;49.902;8.590;2022-12-18T12:34:00;32.17;;;17.30;;
7493;SDS011;3788;49.902;8.590;2022-12-18T12:36:37;32.00;;;16.20;;
7493;SDS011;3788;49.902;8.590;2022-12-18T12:39:13;31.73;;;16.93;;
7493;SDS011;3788;49.902;8.590;2022-12-18T12:41:44;32.23;;;17.20;;
7493;SDS011;3788;49.902;8.590;2022-12-18T12:44:30;33.87;;;17.07;;
7493;SDS011;3788;49.902;8.590;2022-12-18T12:47:04;33.57;;;17.97;;
7493;SDS011;3788;49.902;8.590;2022-12-18T12:49:37;36.90;;;17.47;;
7493;SDS011;3788;49.902;8.590;2022-12-18T12:52:06;36.63;;;17.20;;
7493;SDS011;3788;49.902;8.590;2022-12-18T12:54:41;39.27;;;19.03;;
7493;SDS011;3788;49.902;8.590;2022-12-18T12:57:09;32.20;;;17.50;;
7493;SDS011;3788;49.902;8.590;2022-12-18T12:59:40;35.87;;;17.87;;
7493;SDS011;3788;49.902;8.590;2022-12-18T13:02:16;30.17;;;16.87;;
7493;SDS011;3788;49.902;8.590;2022-12-18T13:04:49;35.90;;;18.40;;
7493;SDS011;3788;49.902;8.590;2022-12-18T13:07:24;28.73;;;16.70;;
7493;SDS011;3788;49.902;8.590;2022-12-18T13:10:14;32.27;;;17.80;;
7493;SDS011;3788;49.902;8.590;2022-12-18T13:12:57;33.00;;;17.33;;
7493;SDS011;3788;49.902;8.590;2022-12-18T13:15:26;30.33;;;15.87;;
7493;SDS011;3788;49.902;8.590;2022-12-18T13:18:16;33.97;;;17.17;;
7493;SDS011;3788;49.902;8.590;2022-12-18T13:20:45;35.23;;;17.60;;
7493;SDS011;3788;49.902;8.590;2022-12-18T13:23:25;42.87;;;19.43;;
7493;SDS011;3788;49.902;8.590;2022-12-18T13:25:54;33.27;;;17.57;;
7493;SDS011;3788;49.902;8.590;2022-12-18T13:28:22;33.90;;;17.27;;
7493;SDS011;3788;49.902;8.590;2022-12-18T13:31:09;37.20;;;18.40;;
7493;SDS011;3788;49.902;8.590;2022-12-18T13:33:42;36.33;;;17.20;;
7493;SDS011;3788;49.902;8.590;2022-12-18T13:36:12;37.90;;;17.93;;
7493;SDS011;3788;49.902;8.590;2022-12-18T13:38:42;34.50;;;18.33;;
7493;SDS011;3788;49.902;8.590;2022-12-18T13:41:22;32.07;;;16.50;;
7493;SDS011;3788;49.902;8.590;2022-12-18T13:43:51;36.73;;;18.80;;
7493;SDS011;3788;49.902;8.590;2022-12-18T13:46:21;34.10;;;18.00;;
7493;SDS011;3788;49.902;8.590;2022-12-18T13:48:52;36.57;;;17.77;;
7493;SDS011;3788;49.902;8.590;2022-12-18T13:51:23;35.43;;;17.73;;
7493;SDS011;3788;49.902;8.590;2022-12-18T13:53:52;33.80;;;16.53;;
7493;SDS011;3788;49.902;8.590;2022-12-18T13:56:24;32.20;;;16.93;;
7493;SDS011;3788;49.902;8.590;2022-12-18T14:01:46;37.77;;;18.00;;
7493;SDS011;3788;49.902;8.590;2022-12-18T14:04:21;32.70;;;16.93;;
7493;SDS011;3788;49.902;8.590;2022-12-18T14:06:51;34.03;;;17.57;;
7493;SDS011;3788;49.902;8.590;2022-12-18T14:09:22;34.07;;;17.37;;
7493;SDS011;3788;49.902;8.590;2022-12-18T14:11:54;35.00;;;17.77;;
7493;SDS011;3788;49.902;8.590;2022-12-18T14:14:44;33.27;;;16.77;;
7493;SDS011;3788;49.902;8.590;2022-12-18T14:17:13;33.27;;;16.90;;
7493;SDS011;3788;49.902;8.590;2022-12-18T14:19:42;29.63;;;16.57;;
7493;SDS011;3788;49.902;8.590;2022-12-18T14:22:15;32.43;;;16.97;;
7493;SDS011;3788;49.902;8.590;2022-12-18T14:24:43;32.33;;;16.83;;
7493;SDS011;3788;49.902;8.590;2022-12-18T14:27:20;33.93;;;17.80;;
7493;SDS011;3788;49.902;8.590;2022-12-18T14:29:49;30.10;;;16.53;;
7493;SDS011;3788;49.902;8.590;2022-12-18T14:32:16;30.17;;;16.17;;
7493;SDS011;3788;49.902;8.590;2022-12-18T14:34:46;35.87;;;17.33;;
7493;SDS011;3788;49.902;8.590;2022-12-18T14:37:14;31.07;;;15.47;;
7493;SDS011;3788;49.902;8.590;2022-12-18T14:39:53;31.77;;;16.47;;
7493;SDS011;3788;49.902;8.590;2022-12-18T14:42:21;27.70;;;14.77;;
7493;SDS011;3788;49.902;8.590;2022-12-18T14:44:52;33.23;;;17.30;;
7493;SDS011;3788;49.902;8.590;2022-12-18T14:47:58;32.27;;;16.07;;
7493;SDS011;3788;49.902;8.590;2022-12-18T14:50:27;34.73;;;16.60;;
7493;SDS011;3788;49.902;8.590;2022-12-18T14:52:54;29.60;;;14.90;;
7493;SDS011;3788;49.902;8.590;2022-12-18T14:55:20;31.20;;;17.30;;
7493;SDS011;3788;49.902;8.590;2022-12-18T14:57:49;27.37;;;15.33;;
7493;SDS011;3788;49.902;8.590;2022-12-18T15:00:18;28.43;;;15.23;;
7493;SDS011;3788;49.902;8.590;2022-12-18T15:02:48;26.20;;;14.77;;
7493;SDS011;3788;49.902;8.590;2022-12-18T15:05:20;25.87;;;13.93;;
7493;SDS011;3788;49.902;8.590;2022-12-18T15:07:52;30.50;;;16.43;;
7493;SDS011;3788;49.902;8.590;2022-12-18T15:10:21;24.87;;;13.83;;
7493;SDS011;3788;49.902;8.590;2022-12-18T15:12:49;29.50;;;15.60;;
7493;SDS011;3788;49.902;8.590;2022-12-18T15:15:44;29.00;;;15.20;;
7493;SDS011;3788;49.902;8.590;2022-12-18T15:18:12;27.10;;;13.30;;